CSF4 weather

Shelburne (Schaefer Field)
Ontario, Canada

Public forecast

Using degrees Celsius for public forecast. Weather courtesy of forecast.io.

METAR (pilot weather report)

Closest report is CFB Borden, 21.8 nm (40.4 km) NE. Retrieved 2019/07/20 19:00 UTC (3 minutes ago):

CYBN 201900Z AUTO 28011KT 260V320 9SM BKN052 BKN075 32/19 A2979 RMK SLP084

TAF (pilot weather forecast)

Forecast is more than 12 hours old.

Closest forecast is CFB Borden, 21.8 nm (40.4 km) NE. Retrieved 2019/07/19 18:33 UTC (1 day ago):

TAF TAF CYBN 191730Z 1918/2006 23010KT P6SM SCT020 SCT040 BKN100 TEMPO 1918/1924 5SM -SHRA BR BKN020 OVC040 PROB30 1918/1924 1SM TSRA BR BKN020 OVC040CB FM200000 24008KT P6SM SCT020 BKN040 BECMG 2002/2004 22005KT FEW020 RMK FCST BASED ON AUTO OBS. NXT FCST BY 200000Z